Terminal Aerodrome Forecast
Issued by NWS

Home | Current Version | Previous Version | Text Only | Print | Product List | Glossary On
Versions: 1 2 3 4 5 6 7 8 9 10 11 12 13 14 15 16 17 18
000
FTUS43 KFGF 181138
TAFDVL
TAF
KDVL 181138Z 1812/1912 30011KT P6SM BKN060
     FM181500 30014KT P6SM SCT250
     FM190000 28008KT P6SM FEW250
     FM190900 22007KT P6SM BKN200=

USA.gov is the U.S. government's official web portal to all federal, state and local government web resources and services.